createdAt,value
2022-11-12T00:01:33.844Z,15.10
2022-11-12T00:04:18.644Z,14.05
2022-11-12T00:07:03.520Z,14.77
2022-11-12T00:09:48.326Z,15.25
2022-11-12T00:12:33.218Z,13.32
2022-11-12T00:15:18.672Z,14.98
2022-11-12T00:18:04.089Z,13.18
2022-11-12T00:20:49.488Z,12.48
2022-11-12T00:23:34.657Z,13.80
2022-11-12T00:26:19.558Z,11.45
2022-11-12T00:29:04.668Z,13.95
2022-11-12T00:31:49.855Z,13.48
2022-11-12T00:34:35.057Z,13.07
2022-11-12T00:37:20.869Z,14.00
2022-11-12T00:40:06.728Z,12.52
2022-11-12T00:42:52.762Z,13.82
2022-11-12T00:45:37.590Z,12.77
2022-11-12T00:48:22.804Z,9.77
2022-11-12T00:51:07.989Z,17.00
2022-11-12T00:53:53.185Z,10.40
2022-11-12T00:56:38.244Z,14.30
2022-11-12T00:59:23.047Z,10.73
2022-11-12T01:02:08.265Z,13.23
2022-11-12T01:04:53.093Z,11.98
2022-11-12T01:07:38.057Z,10.23
2022-11-12T01:10:23.243Z,12.45
2022-11-12T01:13:08.173Z,10.18
2022-11-12T01:15:53.101Z,11.73
2022-11-12T01:18:38.345Z,12.38
2022-11-12T01:21:25.533Z,11.38
2022-11-12T01:24:11.280Z,9.88
2022-11-12T01:26:56.274Z,11.57
2022-11-12T01:29:41.268Z,10.82
2022-11-12T01:32:27.773Z,10.93
2022-11-12T01:35:12.952Z,10.55
2022-11-12T01:37:57.758Z,10.98
2022-11-12T01:40:42.683Z,9.63
2022-11-12T01:43:27.583Z,10.20
2022-11-12T01:46:27.586Z,8.93
2022-11-12T01:49:26.972Z,10.60
2022-11-12T01:52:37.251Z,10.32
2022-11-12T01:55:25.791Z,9.10
2022-11-12T01:58:15.476Z,10.68
2022-11-12T02:01:02.527Z,10.10
2022-11-12T02:03:47.616Z,10.35
2022-11-12T02:06:33.840Z,10.40
2022-11-12T02:09:19.377Z,9.70
2022-11-12T02:12:05.266Z,11.48
2022-11-12T02:14:50.383Z,10.48
2022-11-12T02:17:35.553Z,9.50
2022-11-12T02:20:20.616Z,11.98
2022-11-12T02:23:07.360Z,9.70
2022-11-12T02:25:52.284Z,14.95
2022-11-12T02:28:37.423Z,9.00
2022-11-12T02:31:22.858Z,12.63
2022-11-12T02:34:07.763Z,9.45
2022-11-12T02:36:52.990Z,10.88
2022-11-12T02:39:38.382Z,10.88
2022-11-12T02:42:23.592Z,11.60
2022-11-12T02:45:08.915Z,15.32
2022-11-12T02:47:53.967Z,9.23
2022-11-12T02:50:39.066Z,10.02
2022-11-12T02:53:24.057Z,10.82
2022-11-12T02:56:09.212Z,9.45
2022-11-12T02:58:54.144Z,10.65
2022-11-12T03:01:39.095Z,9.40
2022-11-12T03:04:24.307Z,21.08
2022-11-12T03:07:09.336Z,28.92
2022-11-12T03:09:54.201Z,29.15
2022-11-12T03:12:39.287Z,18.23
2022-11-12T03:15:24.623Z,16.65
2022-11-12T03:18:09.460Z,26.65
2022-11-12T03:20:54.309Z,18.55
2022-11-12T03:23:39.181Z,17.20
2022-11-12T03:26:24.042Z,15.43
2022-11-12T03:29:09.052Z,16.65
2022-11-12T03:31:53.982Z,10.23
2022-11-12T03:34:38.972Z,19.77
2022-11-12T03:37:24.146Z,9.00
2022-11-12T03:40:09.464Z,9.10
2022-11-12T03:42:54.700Z,10.40
2022-11-12T03:45:39.949Z,10.75
2022-11-12T03:48:26.648Z,10.43
2022-11-12T03:51:16.168Z,12.82
2022-11-12T03:54:01.346Z,10.80
2022-11-12T03:56:46.199Z,10.40
2022-11-12T03:59:31.072Z,12.25
2022-11-12T04:02:15.967Z,10.75
2022-11-12T04:05:19.545Z,8.82
2022-11-12T04:11:13.457Z,9.38
2022-11-12T04:13:58.811Z,12.45
2022-11-12T04:17:02.867Z,12.18
2022-11-12T04:20:07.011Z,14.00
2022-11-12T04:22:52.241Z,11.40
2022-11-12T04:25:55.780Z,13.57
2022-11-12T04:31:46.177Z,13.40
2022-11-12T04:34:31.296Z,11.38
2022-11-12T04:37:19.796Z,11.30
2022-11-12T04:40:28.370Z,14.73
2022-11-12T04:43:35.400Z,10.48
2022-11-12T04:46:20.874Z,11.93
2022-11-12T04:49:05.936Z,10.98
2022-11-12T04:52:06.085Z,11.93
2022-11-12T04:54:52.205Z,30.90
2022-11-12T04:57:38.138Z,13.30
2022-11-12T05:00:23.287Z,22.13
2022-11-12T05:03:08.533Z,12.00
2022-11-12T05:06:00.924Z,12.55
2022-11-12T05:08:45.857Z,11.52
2022-11-12T05:11:30.754Z,9.95
2022-11-12T05:14:16.120Z,10.27
2022-11-12T05:17:01.521Z,12.57
2022-11-12T05:19:46.252Z,34.53
2022-11-12T05:22:43.279Z,11.75
2022-11-12T05:25:31.120Z,10.00
2022-11-12T05:28:15.985Z,12.90
2022-11-12T05:31:00.826Z,10.77
2022-11-12T05:33:45.773Z,10.70
2022-11-12T05:36:30.858Z,9.88
2022-11-12T05:39:16.273Z,12.57
2022-11-12T05:42:16.334Z,11.57
2022-11-12T05:45:01.753Z,10.18
2022-11-12T05:47:47.893Z,9.75
2022-11-12T05:50:39.935Z,9.13
2022-11-12T05:53:30.220Z,10.57
2022-11-12T05:56:15.593Z,11.48
2022-11-12T05:59:02.288Z,10.00
2022-11-12T06:01:47.611Z,11.63
2022-11-12T06:04:32.497Z,10.82
2022-11-12T06:07:17.685Z,14.77
2022-11-12T06:10:02.441Z,10.52
2022-11-12T06:12:47.527Z,20.73
2022-11-12T06:15:39.002Z,13.90
2022-11-12T06:18:25.771Z,13.30
2022-11-12T06:21:24.398Z,18.50
2022-11-12T06:24:09.590Z,13.00
2022-11-12T06:26:54.828Z,11.68
2022-11-12T06:29:39.893Z,23.90
2022-11-12T06:32:25.315Z,11.85
2022-11-12T06:35:10.992Z,11.27
2022-11-12T06:37:55.928Z,11.40
2022-11-12T06:40:41.903Z,14.95
2022-11-12T06:43:29.319Z,11.07
2022-11-12T06:46:16.326Z,10.20
2022-11-12T06:49:01.523Z,12.75
2022-11-12T06:51:46.614Z,11.82
2022-11-12T06:54:31.889Z,15.18
2022-11-12T06:57:17.078Z,16.75
2022-11-12T07:00:02.163Z,13.25
2022-11-12T07:02:47.435Z,14.57
2022-11-12T07:05:35.908Z,13.70
2022-11-12T07:08:20.957Z,14.50
2022-11-12T07:11:06.454Z,14.93
2022-11-12T07:13:51.311Z,13.70
2022-11-12T07:16:36.171Z,14.20
2022-11-12T07:19:21.104Z,14.32
2022-11-12T07:22:06.346Z,19.80
2022-11-12T07:24:51.677Z,34.38
2022-11-12T07:27:37.000Z,16.58
2022-11-12T07:30:22.131Z,15.18
2022-11-12T07:33:07.237Z,14.07
2022-11-12T07:36:06.277Z,13.63
2022-11-12T07:38:53.065Z,14.98
2022-11-12T07:41:37.971Z,20.58
2022-11-12T07:44:22.812Z,14.85
2022-11-12T07:47:07.870Z,14.32
2022-11-12T07:49:53.204Z,12.45
2022-11-12T07:52:38.354Z,24.60
2022-11-12T07:55:23.194Z,21.05
2022-11-12T07:58:08.312Z,14.13
2022-11-12T08:00:53.939Z,14.30
2022-11-12T08:03:39.249Z,17.50
2022-11-12T08:06:24.280Z,14.02
2022-11-12T08:09:10.711Z,16.83
2022-11-12T08:11:56.082Z,17.80
2022-11-12T08:14:41.127Z,14.18
2022-11-12T08:17:25.974Z,20.55
2022-11-12T08:20:11.893Z,20.95
2022-11-12T08:22:59.988Z,24.50
2022-11-12T08:25:44.801Z,18.27
2022-11-12T08:28:31.075Z,15.70
2022-11-12T08:31:19.711Z,23.50
2022-11-12T08:34:12.247Z,19.55
2022-11-12T08:36:57.712Z,24.92
2022-11-12T08:39:43.795Z,17.80
2022-11-12T08:42:30.138Z,21.60
2022-11-12T08:45:16.009Z,19.08
2022-11-12T08:48:10.502Z,21.17
2022-11-12T08:50:56.162Z,23.60
2022-11-12T08:53:41.701Z,22.35
2022-11-12T08:56:26.730Z,25.15
2022-11-12T08:59:12.029Z,23.13
2022-11-12T09:01:57.166Z,23.20
2022-11-12T09:04:42.093Z,23.95
2022-11-12T09:07:48.721Z,28.92
2022-11-12T09:10:32.833Z,27.33
2022-11-12T09:13:18.506Z,21.65
2022-11-12T09:16:06.089Z,24.80
2022-11-12T09:18:51.124Z,23.90
2022-11-12T09:21:36.286Z,20.55
2022-11-12T09:24:21.322Z,23.63
2022-11-12T09:27:06.360Z,23.73
2022-11-12T09:29:51.203Z,21.73
2022-11-12T09:32:36.203Z,22.23
2022-11-12T09:35:22.422Z,23.25
2022-11-12T09:38:07.399Z,25.85
2022-11-12T09:40:52.512Z,21.38
2022-11-12T09:43:42.595Z,24.73
2022-11-12T09:46:28.356Z,26.73
2022-11-12T09:49:47.922Z,24.42
2022-11-12T09:52:33.283Z,26.67
2022-11-12T09:55:49.065Z,25.90
2022-11-12T09:58:34.379Z,24.55
2022-11-12T10:01:25.319Z,29.08
2022-11-12T10:04:33.203Z,28.48
2022-11-12T10:07:29.345Z,27.08
2022-11-12T10:10:20.339Z,27.15
2022-11-12T10:13:19.984Z,28.00
2022-11-12T10:16:45.362Z,29.02
2022-11-12T10:19:39.688Z,36.30
2022-11-12T10:22:33.678Z,28.55
2022-11-12T10:25:20.291Z,35.92
2022-11-12T10:28:18.671Z,28.50
2022-11-12T10:31:13.795Z,29.92
2022-11-12T10:34:17.114Z,30.65
2022-11-12T10:37:30.069Z,28.73
2022-11-12T10:40:31.177Z,32.42
2022-11-12T10:43:16.256Z,30.35
2022-11-12T10:46:18.362Z,31.90
2022-11-12T10:49:23.869Z,30.02
2022-11-12T10:52:22.099Z,29.50
2022-11-12T10:55:23.280Z,33.05
2022-11-12T10:58:11.543Z,32.00
2022-11-12T11:01:02.273Z,32.72
2022-11-12T11:03:53.936Z,29.95
2022-11-12T11:06:39.660Z,28.13
2022-11-12T11:09:26.018Z,34.33
2022-11-12T11:12:32.291Z,29.05
2022-11-12T11:15:23.645Z,30.33
2022-11-12T11:18:12.653Z,33.40
2022-11-12T11:21:42.930Z,30.13
2022-11-12T11:25:01.832Z,30.15
2022-11-12T11:27:56.881Z,28.02
2022-11-12T11:30:55.187Z,27.90
2022-11-12T11:33:53.404Z,28.65
2022-11-12T11:36:59.893Z,27.10
2022-11-12T11:40:03.182Z,24.50
2022-11-12T11:43:05.255Z,30.80
2022-11-12T11:46:02.588Z,28.52
2022-11-12T11:49:04.397Z,32.22
2022-11-12T11:52:20.584Z,30.73
2022-11-12T11:55:20.745Z,29.92
2022-11-12T11:58:37.013Z,32.75
2022-11-12T12:01:57.751Z,29.33
2022-11-12T12:05:02.332Z,28.25
2022-11-12T12:08:00.106Z,29.25
2022-11-12T12:11:10.725Z,28.70
2022-11-12T12:14:18.464Z,30.30
2022-11-12T12:17:42.375Z,28.23
2022-11-12T12:20:39.475Z,29.20
2022-11-12T12:23:37.840Z,28.40
2022-11-12T12:26:35.247Z,27.17
2022-11-12T12:29:36.706Z,29.05
2022-11-12T12:32:42.239Z,28.92
2022-11-12T12:35:37.924Z,33.60
2022-11-12T12:38:40.222Z,34.53
2022-11-12T12:41:29.208Z,29.08
2022-11-12T12:44:14.890Z,30.75
2022-11-12T12:47:04.027Z,32.22
2022-11-12T12:49:51.412Z,33.88
2022-11-12T12:53:02.888Z,33.92
2022-11-12T12:55:54.271Z,31.38
2022-11-12T12:58:44.932Z,33.15
2022-11-12T13:01:36.145Z,34.38
2022-11-12T13:04:51.967Z,32.92
2022-11-12T13:07:43.995Z,33.03
2022-11-12T13:10:41.807Z,32.25
2022-11-12T13:13:33.107Z,37.33
2022-11-12T13:16:51.890Z,33.53
2022-11-12T13:19:59.067Z,35.10
2022-11-12T13:22:44.070Z,38.95
2022-11-12T13:25:31.924Z,34.70
2022-11-12T13:28:18.374Z,31.70
2022-11-12T13:31:19.034Z,36.88
2022-11-12T13:34:33.745Z,30.88
2022-11-12T13:37:21.152Z,34.88
2022-11-12T13:40:11.864Z,33.60
2022-11-12T13:43:15.364Z,35.33
2022-11-12T13:46:23.612Z,37.90
2022-11-12T13:49:15.336Z,34.97
2022-11-12T13:52:00.700Z,40.10
2022-11-12T13:54:45.795Z,38.15
2022-11-12T13:57:32.301Z,40.80
2022-11-12T14:00:29.897Z,38.22
2022-11-12T14:03:18.145Z,41.33
2022-11-12T14:06:15.656Z,37.67
2022-11-12T14:09:30.703Z,40.65
2022-11-12T14:12:30.085Z,40.90
2022-11-12T14:15:36.192Z,39.88
2022-11-12T14:18:42.496Z,37.75
2022-11-12T14:21:27.716Z,36.22
2022-11-12T14:24:13.425Z,35.13
2022-11-12T14:26:58.337Z,35.40
2022-11-12T14:29:43.952Z,38.85
2022-11-12T14:32:36.094Z,38.38
2022-11-12T14:35:37.428Z,35.00
2022-11-12T14:38:44.705Z,34.08
2022-11-12T14:41:38.951Z,34.92
2022-11-12T14:44:34.559Z,39.92
2022-11-12T14:47:19.646Z,37.78
2022-11-12T14:50:06.151Z,37.08
2022-11-12T14:53:01.000Z,40.38
2022-11-12T14:55:52.357Z,40.33
2022-11-12T14:58:39.314Z,36.67
2022-11-12T15:04:39.133Z,36.67
2022-11-12T15:07:56.584Z,35.55
2022-11-12T15:10:43.957Z,30.27
2022-11-12T15:13:38.614Z,30.33
2022-11-12T15:16:27.214Z,30.17
2022-11-12T15:19:20.923Z,29.25
2022-11-12T15:22:06.263Z,28.90
2022-11-12T15:24:51.784Z,29.85
2022-11-12T15:27:41.948Z,27.83
2022-11-12T15:30:30.470Z,30.40
2022-11-12T15:33:21.854Z,29.48
2022-11-12T15:36:22.546Z,26.05
2022-11-12T15:39:13.560Z,26.08
2022-11-12T15:42:14.112Z,27.73
2022-11-12T15:45:02.251Z,32.92
2022-11-12T15:47:47.730Z,35.17
2022-11-12T15:50:32.916Z,26.05
2022-11-12T15:53:18.414Z,28.85
2022-11-12T15:56:11.952Z,27.50
2022-11-12T15:58:57.680Z,33.13
2022-11-12T16:01:43.547Z,29.92
2022-11-12T16:04:29.518Z,28.92
2022-11-12T16:07:14.694Z,30.08
2022-11-12T16:09:59.570Z,32.00
2022-11-12T16:12:47.955Z,31.80
2022-11-12T16:15:33.512Z,29.58
2022-11-12T16:18:18.379Z,29.00
2022-11-12T16:21:04.771Z,25.15
2022-11-12T16:23:49.635Z,26.58
2022-11-12T16:26:35.380Z,32.72
2022-11-12T16:29:20.274Z,36.03
2022-11-12T16:32:06.000Z,49.90
2022-11-12T16:34:51.243Z,40.28
2022-11-12T16:37:40.292Z,39.08
2022-11-12T16:40:28.276Z,27.10
2022-11-12T16:43:13.330Z,25.05
2022-11-12T16:45:59.579Z,24.55
2022-11-12T16:48:44.713Z,22.25
2022-11-12T16:51:29.813Z,23.13
2022-11-12T16:54:14.969Z,23.88
2022-11-12T16:57:00.231Z,23.85
2022-11-12T16:59:45.327Z,24.90
2022-11-12T17:02:30.460Z,25.20
2022-11-12T17:05:19.829Z,23.60
2022-11-12T17:08:05.234Z,24.95
2022-11-12T17:10:50.704Z,21.88
2022-11-12T17:13:38.565Z,22.77
2022-11-12T17:16:23.770Z,28.48
2022-11-12T17:19:10.388Z,25.55
2022-11-12T17:21:55.398Z,26.45
2022-11-12T17:24:40.606Z,27.42
2022-11-12T17:27:25.579Z,24.60
2022-11-12T17:30:11.928Z,28.63
2022-11-12T17:32:59.558Z,58.20
2022-11-12T17:35:44.427Z,43.20
2022-11-12T17:38:30.237Z,33.15
2022-11-12T17:41:15.312Z,31.08
2022-11-12T17:44:01.947Z,37.85
2022-11-12T17:46:47.733Z,24.85
2022-11-12T17:49:32.840Z,26.35
2022-11-12T17:52:18.164Z,25.27
2022-11-12T17:55:03.310Z,29.02
2022-11-12T17:57:48.855Z,27.10
2022-11-12T18:00:35.132Z,38.10
2022-11-12T18:03:20.349Z,59.72
2022-11-12T18:06:06.054Z,25.05
2022-11-12T18:08:56.383Z,29.73
2022-11-12T18:11:47.455Z,36.25
2022-11-12T18:14:32.509Z,44.45
2022-11-12T18:17:17.552Z,28.98
2022-11-12T18:20:03.750Z,62.42
2022-11-12T18:22:48.610Z,54.72
2022-11-12T18:25:35.631Z,24.30
2022-11-12T18:28:20.517Z,24.92
2022-11-12T18:31:07.141Z,21.02
2022-11-12T18:33:53.240Z,21.08
2022-11-12T18:36:38.276Z,19.65
2022-11-12T18:39:23.175Z,33.67
2022-11-12T18:42:08.049Z,20.20
2022-11-12T18:44:53.080Z,43.33
2022-11-12T18:47:38.447Z,18.63
2022-11-12T18:50:23.756Z,24.63
2022-11-12T18:53:08.791Z,41.72
2022-11-12T18:55:54.854Z,14.80
2022-11-12T18:58:40.535Z,17.20
2022-11-12T19:01:25.614Z,50.38
2022-11-12T19:04:11.274Z,30.67
2022-11-12T19:06:56.516Z,25.52
2022-11-12T19:09:41.848Z,29.00
2022-11-12T19:12:26.686Z,32.30
2022-11-12T19:15:12.555Z,28.65
2022-11-12T19:17:57.696Z,42.03
2022-11-12T19:20:42.676Z,47.80
2022-11-12T19:23:28.462Z,40.10
2022-11-12T19:26:15.865Z,27.95
2022-11-12T19:29:01.518Z,46.50
2022-11-12T19:31:46.571Z,25.35
2022-11-12T19:34:31.484Z,16.80
2022-11-12T19:37:32.973Z,18.80
2022-11-12T19:40:18.819Z,16.75
2022-11-12T19:43:03.967Z,16.05
2022-11-12T19:45:49.169Z,16.05
2022-11-12T19:48:34.593Z,59.60
2022-11-12T19:51:19.456Z,27.27
2022-11-12T19:54:04.496Z,15.10
2022-11-12T19:56:50.250Z,19.35
2022-11-12T19:59:35.538Z,38.95
2022-11-12T20:02:20.314Z,17.58
2022-11-12T20:05:05.856Z,27.63
2022-11-12T20:07:51.793Z,51.50
2022-11-12T20:10:36.937Z,16.23
2022-11-12T20:13:22.198Z,14.45
2022-11-12T20:16:23.924Z,35.45
2022-11-12T20:19:10.525Z,11.43
2022-11-12T20:21:55.844Z,18.42
2022-11-12T20:24:40.766Z,25.13
2022-11-12T20:27:26.456Z,27.02
2022-11-12T20:30:12.021Z,51.30
2022-11-12T20:32:56.997Z,33.40
2022-11-12T20:35:42.169Z,72.53
2022-11-12T20:38:28.170Z,33.20
2022-11-12T20:41:21.837Z,19.20
2022-11-12T20:44:06.936Z,19.45
2022-11-12T20:46:51.919Z,18.13
2022-11-12T20:49:36.944Z,20.83
2022-11-12T20:52:21.872Z,18.23
2022-11-12T20:55:07.083Z,32.83
2022-11-12T20:57:52.259Z,50.60
2022-11-12T21:00:38.780Z,40.75
2022-11-12T21:03:24.134Z,18.45
2022-11-12T21:06:11.763Z,22.67
2022-11-12T21:08:59.647Z,16.95
2022-11-12T21:11:44.648Z,71.18
2022-11-12T21:14:30.455Z,18.23
2022-11-12T21:17:15.699Z,24.27
2022-11-12T21:20:00.826Z,45.13
2022-11-12T21:22:45.793Z,19.30
2022-11-12T21:25:34.248Z,33.47
2022-11-12T21:28:19.566Z,14.63
2022-11-12T21:31:07.203Z,33.70
2022-11-12T21:34:04.396Z,20.10
2022-11-12T21:36:49.398Z,19.23
2022-11-12T21:39:34.723Z,20.95
2022-11-12T21:42:19.682Z,23.65
2022-11-12T21:45:05.213Z,46.70
2022-11-12T21:47:50.032Z,24.13
2022-11-12T21:50:34.998Z,19.63
2022-11-12T21:53:20.079Z,20.42
2022-11-12T21:56:11.043Z,19.30
2022-11-12T21:59:01.135Z,22.67
2022-11-12T22:01:46.784Z,48.92
2022-11-12T22:04:37.828Z,19.52
2022-11-12T22:07:24.984Z,33.15
2022-11-12T22:10:10.168Z,14.90
2022-11-12T22:13:24.954Z,23.25
2022-11-12T22:16:13.106Z,18.13
2022-11-12T22:19:04.465Z,18.58
2022-11-12T22:21:50.143Z,17.10
2022-11-12T22:24:35.145Z,17.27
2022-11-12T22:27:20.330Z,19.10
2022-11-12T22:30:06.056Z,25.33
2022-11-12T22:32:51.182Z,18.20
2022-11-12T22:35:36.144Z,16.50
2022-11-12T22:38:21.310Z,15.35
2022-11-12T22:41:13.568Z,14.50
2022-11-12T22:44:01.321Z,12.63
2022-11-12T22:46:46.836Z,18.83
2022-11-12T22:49:31.930Z,14.75
2022-11-12T22:52:17.007Z,26.77
2022-11-12T22:55:02.101Z,12.38
2022-11-12T22:57:47.003Z,11.90
2022-11-12T23:00:32.388Z,11.30
2022-11-12T23:03:17.718Z,29.48
2022-11-12T23:06:06.162Z,13.10
2022-11-12T23:08:53.059Z,12.85
2022-11-12T23:11:38.325Z,10.60
2022-11-12T23:14:23.503Z,27.50
2022-11-12T23:17:08.502Z,13.75
2022-11-12T23:19:53.452Z,12.23
2022-11-12T23:22:38.577Z,14.68
2022-11-12T23:25:23.882Z,37.72
2022-11-12T23:28:09.290Z,24.52
2022-11-12T23:30:54.859Z,13.07
2022-11-12T23:33:43.154Z,12.70
2022-11-12T23:36:29.562Z,12.23
2022-11-12T23:39:14.574Z,47.75
2022-11-12T23:42:00.139Z,12.55
2022-11-12T23:44:46.326Z,12.82
2022-11-12T23:47:31.515Z,20.63
2022-11-12T23:50:16.676Z,11.15
2022-11-12T23:53:01.933Z,12.48
2022-11-12T23:55:47.491Z,17.13
2022-11-12T23:58:33.304Z,10.55
